createdAt,value
2019-06-26T00:02:28.927Z,3.42
2019-06-26T00:07:32.374Z,2.98
2019-06-26T00:12:35.843Z,3.67
2019-06-26T00:17:39.322Z,3.65
2019-06-26T00:22:42.797Z,3.20
2019-06-26T00:27:46.263Z,3.20
2019-06-26T00:32:49.720Z,3.58
2019-06-26T00:37:53.494Z,4.12
2019-06-26T00:42:56.963Z,3.75
2019-06-26T00:48:00.456Z,4.25
2019-06-26T00:53:05.089Z,3.88
2019-06-26T00:58:08.590Z,4.17
2019-06-26T01:03:12.487Z,3.85
2019-06-26T01:08:15.940Z,3.83
2019-06-26T01:13:19.482Z,4.47
2019-06-26T01:18:22.991Z,3.87
2019-06-26T01:23:26.560Z,4.33
2019-06-26T01:28:30.034Z,4.33
2019-06-26T01:33:33.513Z,4.00
2019-06-26T01:38:37.313Z,4.78
2019-06-26T01:43:40.761Z,4.37
2019-06-26T01:48:44.255Z,3.87
2019-06-26T01:53:48.046Z,4.45
2019-06-26T01:58:51.547Z,5.22
2019-06-26T02:03:54.997Z,4.40
2019-06-26T02:08:58.484Z,4.80
2019-06-26T02:14:03.465Z,4.15
2019-06-26T02:19:08.583Z,5.50
2019-06-26T02:24:12.089Z,4.92
2019-06-26T02:29:15.664Z,4.58
2019-06-26T02:34:19.136Z,4.55
2019-06-26T02:39:22.878Z,4.63
2019-06-26T02:44:26.349Z,5.00
2019-06-26T02:49:31.434Z,4.25
2019-06-26T02:54:34.875Z,6.80
2019-06-26T02:59:38.351Z,4.97
2019-06-26T03:04:41.809Z,5.08
2019-06-26T03:09:45.264Z,5.20
2019-06-26T03:14:48.728Z,6.28
2019-06-26T03:19:52.488Z,4.72
2019-06-26T03:24:55.963Z,6.30
2019-06-26T03:29:59.411Z,6.07
2019-06-26T03:35:02.883Z,5.40
2019-06-26T03:40:07.832Z,6.20
2019-06-26T03:45:24.498Z,6.17
2019-06-26T03:50:17.055Z,6.10
2019-06-26T03:55:20.845Z,5.92
2019-06-26T04:00:39.830Z,5.90
2019-06-26T04:05:43.365Z,6.45
2019-06-26T04:10:46.819Z,7.10
2019-06-26T04:15:51.134Z,5.67
2019-06-26T04:20:54.625Z,7.25
2019-06-26T04:25:59.628Z,7.12
2019-06-26T04:31:03.187Z,5.58
2019-06-26T04:36:06.734Z,7.17
2019-06-26T04:41:10.496Z,6.72
2019-06-26T04:46:13.998Z,6.30
2019-06-26T04:51:17.437Z,6.10
2019-06-26T04:56:20.917Z,7.07
2019-06-26T05:01:24.354Z,6.60
2019-06-26T05:06:27.837Z,8.25
2019-06-26T05:11:31.318Z,7.40
2019-06-26T05:16:34.880Z,6.58
2019-06-26T05:21:38.402Z,8.43
2019-06-26T05:26:41.868Z,7.10
2019-06-26T05:31:45.447Z,7.85
2019-06-26T05:36:48.919Z,6.83
2019-06-26T05:41:52.750Z,7.10
2019-06-26T05:46:56.524Z,7.62
2019-06-26T05:52:02.160Z,6.95
2019-06-26T05:57:05.672Z,6.62
2019-06-26T06:02:09.201Z,6.80
2019-06-26T06:07:12.675Z,6.30
2019-06-26T06:12:16.148Z,7.25
2019-06-26T06:17:19.619Z,6.50
2019-06-26T06:22:23.366Z,6.95
2019-06-26T06:27:26.804Z,7.00
2019-06-26T06:32:30.435Z,6.17
2019-06-26T06:37:33.892Z,6.72
2019-06-26T06:42:37.635Z,8.50
2019-06-26T06:47:41.152Z,13.75
2019-06-26T06:52:44.710Z,16.97
2019-06-26T06:57:48.180Z,23.02
2019-06-26T07:02:51.644Z,31.87
2019-06-26T07:07:55.133Z,26.68
2019-06-26T07:12:58.993Z,27.80
2019-06-26T07:18:02.446Z,30.80
2019-06-26T07:23:06.254Z,37.73
2019-06-26T07:28:09.934Z,29.52
2019-06-26T07:33:13.380Z,33.50
2019-06-26T07:38:16.929Z,32.20
2019-06-26T07:43:20.564Z,32.17
2019-06-26T07:48:24.120Z,28.02
2019-06-26T07:53:27.596Z,29.30
2019-06-26T07:58:31.152Z,29.60
2019-06-26T08:03:34.647Z,30.23
2019-06-26T08:08:38.116Z,30.95
2019-06-26T08:13:41.575Z,28.17
2019-06-26T08:18:45.064Z,28.02
2019-06-26T08:23:48.549Z,25.72
2019-06-26T08:28:52.000Z,24.75
2019-06-26T08:33:55.544Z,21.80
2019-06-26T08:38:59.653Z,22.40
2019-06-26T08:44:03.282Z,21.65
2019-06-26T08:49:21.098Z,20.92
2019-06-26T08:54:11.938Z,21.45
2019-06-26T08:59:15.433Z,22.73
2019-06-26T09:04:18.913Z,24.57
2019-06-26T09:09:22.396Z,28.57
2019-06-26T09:14:25.848Z,28.23
2019-06-26T09:19:29.407Z,26.77
2019-06-26T09:24:32.889Z,28.90
2019-06-26T09:29:36.353Z,26.02
2019-06-26T09:34:39.835Z,27.90
2019-06-26T09:39:43.552Z,27.77
2019-06-26T09:44:47.349Z,29.85
2019-06-26T09:49:50.796Z,30.23
2019-06-26T09:54:54.324Z,28.65
2019-06-26T09:59:57.889Z,27.42
2019-06-26T10:05:01.485Z,26.55
2019-06-26T10:10:06.107Z,28.83
2019-06-26T10:15:10.063Z,30.55
2019-06-26T10:20:14.863Z,31.57
2019-06-26T10:25:18.673Z,32.48
2019-06-26T10:30:22.687Z,31.43
2019-06-26T10:35:26.174Z,32.00
2019-06-26T10:40:29.829Z,32.25
2019-06-26T10:45:36.086Z,30.73
2019-06-26T10:50:48.575Z,50.67
2019-06-26T10:55:44.320Z,115.10
2019-06-26T11:00:47.913Z,85.37
2019-06-26T11:05:51.531Z,70.67
2019-06-26T11:10:55.230Z,75.45
2019-06-26T11:15:58.970Z,63.37
2019-06-26T11:21:02.785Z,54.10
2019-06-26T11:26:06.507Z,47.08
2019-06-26T11:31:10.046Z,38.38
2019-06-26T11:36:13.734Z,34.10
2019-06-26T11:41:17.379Z,31.27
2019-06-26T11:46:21.074Z,27.62
2019-06-26T11:51:24.719Z,26.68
2019-06-26T11:56:28.688Z,27.93
2019-06-26T12:01:32.167Z,25.92
2019-06-26T12:06:35.775Z,23.15
2019-06-26T12:11:39.563Z,22.85
2019-06-26T12:16:43.198Z,23.80
2019-06-26T12:21:46.914Z,20.40
2019-06-26T12:26:50.547Z,20.90
2019-06-26T12:31:54.251Z,21.20
2019-06-26T12:36:57.871Z,21.10
2019-06-26T12:42:01.665Z,18.57
2019-06-26T12:47:05.617Z,20.23
2019-06-26T12:52:09.561Z,19.15
2019-06-26T12:57:13.108Z,19.20
2019-06-26T13:02:16.751Z,18.17
2019-06-26T13:07:20.497Z,18.57
2019-06-26T13:12:24.115Z,18.00
2019-06-26T13:17:27.745Z,16.65
2019-06-26T13:22:31.491Z,15.98
2019-06-26T13:27:35.169Z,16.70
2019-06-26T13:32:38.678Z,16.82
2019-06-26T13:37:42.512Z,17.65
2019-06-26T13:42:46.335Z,17.17
2019-06-26T13:47:50.060Z,17.70
2019-06-26T13:52:53.627Z,16.57
2019-06-26T13:57:57.281Z,15.50
2019-06-26T14:03:01.113Z,15.00
2019-06-26T14:08:04.942Z,13.95
2019-06-26T14:13:08.765Z,14.68
2019-06-26T14:18:12.393Z,14.23
2019-06-26T14:23:15.946Z,13.38
2019-06-26T14:28:19.931Z,17.60
2019-06-26T14:33:23.655Z,15.97
2019-06-26T14:38:27.380Z,17.87
2019-06-26T14:43:30.997Z,17.62
2019-06-26T14:48:34.478Z,18.87
2019-06-26T14:53:38.216Z,17.70
2019-06-26T14:58:41.882Z,17.87
2019-06-26T15:03:45.663Z,18.47
2019-06-26T15:08:49.281Z,16.67
2019-06-26T15:13:52.925Z,16.65
2019-06-26T15:18:56.515Z,16.73
2019-06-26T15:24:00.240Z,15.60
2019-06-26T15:29:04.983Z,15.38
2019-06-26T15:34:08.627Z,18.20
2019-06-26T15:39:12.621Z,15.98
2019-06-26T15:44:16.339Z,15.63
2019-06-26T15:49:19.940Z,15.97
2019-06-26T15:54:23.579Z,16.02
2019-06-26T15:59:30.881Z,15.18
2019-06-26T16:04:35.128Z,14.47
2019-06-26T16:09:38.022Z,13.30
2019-06-26T16:14:41.840Z,14.67
2019-06-26T16:19:45.663Z,13.20
2019-06-26T16:24:49.298Z,12.78
2019-06-26T16:29:52.898Z,11.78
2019-06-26T16:34:57.549Z,10.63
2019-06-26T16:40:01.276Z,10.63
2019-06-26T16:45:06.808Z,10.43
2019-06-26T16:50:10.905Z,10.20
2019-06-26T16:55:14.978Z,10.65
2019-06-26T17:00:19.319Z,12.90
2019-06-26T17:05:23.064Z,9.73
2019-06-26T17:10:26.759Z,10.05
2019-06-26T17:15:30.384Z,8.98
2019-06-26T17:20:33.956Z,9.47
2019-06-26T17:25:37.636Z,8.05
2019-06-26T17:30:41.328Z,10.43
2019-06-26T17:35:45.047Z,8.35
2019-06-26T17:40:48.507Z,8.18
2019-06-26T17:45:52.128Z,9.48
2019-06-26T17:50:55.855Z,8.85
2019-06-26T17:55:59.519Z,8.20
2019-06-26T18:01:03.158Z,7.72
2019-06-26T18:06:07.368Z,7.97
2019-06-26T18:11:10.951Z,7.67
2019-06-26T18:16:14.609Z,8.87
2019-06-26T18:21:18.326Z,8.90
2019-06-26T18:26:22.031Z,7.28
2019-06-26T18:31:25.581Z,7.37
2019-06-26T18:36:33.520Z,7.42
2019-06-26T18:41:36.182Z,6.78
2019-06-26T18:46:39.955Z,6.75
2019-06-26T18:51:43.616Z,7.33
2019-06-26T18:56:47.282Z,5.00
2019-06-26T19:01:50.958Z,5.25
2019-06-26T19:06:54.586Z,5.27
2019-06-26T19:11:58.356Z,5.72
2019-06-26T19:17:02.130Z,4.80
2019-06-26T19:22:06.074Z,5.28
2019-06-26T19:27:09.666Z,3.93
2019-06-26T19:32:13.394Z,4.65
2019-06-26T19:37:17.020Z,3.67
2019-06-26T19:42:20.725Z,3.60
2019-06-26T19:47:24.560Z,2.65
2019-06-26T19:52:31.913Z,2.62
2019-06-26T19:57:35.159Z,3.20
2019-06-26T20:02:38.791Z,2.35
2019-06-26T20:07:42.597Z,3.25
2019-06-26T20:12:46.318Z,3.52
2019-06-26T20:17:49.956Z,3.03
2019-06-26T20:22:53.666Z,2.00
2019-06-26T20:27:57.490Z,2.00
2019-06-26T20:33:01.406Z,2.70
2019-06-26T20:38:06.621Z,2.62
2019-06-26T20:43:10.280Z,3.47
2019-06-26T20:48:13.899Z,2.70
2019-06-26T20:53:17.620Z,3.30
2019-06-26T20:58:21.453Z,2.87
2019-06-26T21:03:25.280Z,1.60
2019-06-26T21:08:29.641Z,2.17
2019-06-26T21:13:33.397Z,2.50
2019-06-26T21:18:37.046Z,2.08
2019-06-26T21:23:42.533Z,2.30
2019-06-26T21:28:46.113Z,2.42
2019-06-26T21:33:49.568Z,1.67
2019-06-26T21:38:53.254Z,2.35
2019-06-26T21:43:56.981Z,2.05
2019-06-26T21:49:00.613Z,2.30
2019-06-26T21:54:05.135Z,1.60
2019-06-26T21:59:08.778Z,1.70
2019-06-26T22:04:12.694Z,1.80
2019-06-26T22:09:17.011Z,1.87
2019-06-26T22:14:20.740Z,1.87
2019-06-26T22:19:24.216Z,3.02
2019-06-26T22:24:28.054Z,1.98
2019-06-26T22:29:31.792Z,1.82
2019-06-26T22:34:35.592Z,1.77
2019-06-26T22:39:39.441Z,1.70
2019-06-26T22:44:43.186Z,1.57
2019-06-26T22:49:46.844Z,1.70
2019-06-26T22:54:50.521Z,1.40
2019-06-26T22:59:54.233Z,1.80
2019-06-26T23:04:58.071Z,1.80
2019-06-26T23:10:01.850Z,1.45
2019-06-26T23:15:08.757Z,1.90
2019-06-26T23:20:13.434Z,1.50
2019-06-26T23:25:17.505Z,1.32
2019-06-26T23:30:21.558Z,1.10
2019-06-26T23:35:25.687Z,1.50
2019-06-26T23:40:29.342Z,1.60
2019-06-26T23:45:32.885Z,1.12
2019-06-26T23:50:36.856Z,1.17
2019-06-26T23:55:40.507Z,1.30
